sensor_id;sensor_type;location;lat;lon;timestamp;temperature;humidity
26035;DHT22;13809;48.632;11.576;2023-01-20T00:00:51;5.00;35.90
26035;DHT22;13809;48.632;11.576;2023-01-20T00:05:56;5.10;36.10
26035;DHT22;13809;48.632;11.576;2023-01-20T00:11:03;5.10;36.20
26035;DHT22;13809;48.632;11.576;2023-01-20T00:16:08;5.10;36.10
26035;DHT22;13809;48.632;11.576;2023-01-20T00:21:13;5.10;35.90
26035;DHT22;13809;48.632;11.576;2023-01-20T00:26:19;5.00;35.70
26035;DHT22;13809;48.632;11.576;2023-01-20T00:31:24;4.90;35.70
26035;DHT22;13809;48.632;11.576;2023-01-20T00:36:30;4.90;36.00
26035;DHT22;13809;48.632;11.576;2023-01-20T00:41:34;4.90;36.30
26035;DHT22;13809;48.632;11.576;2023-01-20T00:46:37;4.90;36.30
26035;DHT22;13809;48.632;11.576;2023-01-20T00:51:42;5.00;36.60
26035;DHT22;13809;48.632;11.576;2023-01-20T00:56:45;5.00;36.70
26035;DHT22;13809;48.632;11.576;2023-01-20T01:01:48;5.00;36.60
26035;DHT22;13809;48.632;11.576;2023-01-20T01:06:53;5.00;36.60
26035;DHT22;13809;48.632;11.576;2023-01-20T01:11:56;5.00;36.50
26035;DHT22;13809;48.632;11.576;2023-01-20T01:16:59;5.00;36.60
26035;DHT22;13809;48.632;11.576;2023-01-20T01:22:03;5.00;37.20
26035;DHT22;13809;48.632;11.576;2023-01-20T01:27:06;5.00;36.70
26035;DHT22;13809;48.632;11.576;2023-01-20T01:32:10;5.00;36.60
26035;DHT22;13809;48.632;11.576;2023-01-20T01:37:14;5.00;36.60
26035;DHT22;13809;48.632;11.576;2023-01-20T01:42:21;5.00;36.70
26035;DHT22;13809;48.632;11.576;2023-01-20T01:47:25;5.00;36.60
26035;DHT22;13809;48.632;11.576;2023-01-20T01:52:30;4.90;37.30
26035;DHT22;13809;48.632;11.576;2023-01-20T01:57:34;5.00;36.80
26035;DHT22;13809;48.632;11.576;2023-01-20T02:02:37;4.90;36.50
26035;DHT22;13809;48.632;11.576;2023-01-20T02:07:44;4.80;36.50
26035;DHT22;13809;48.632;11.576;2023-01-20T02:12:48;4.80;36.60
26035;DHT22;13809;48.632;11.576;2023-01-20T02:18:07;4.80;36.60
26035;DHT22;13809;48.632;11.576;2023-01-20T02:23:23;4.70;36.50
26035;DHT22;13809;48.632;11.576;2023-01-20T02:28:59;4.70;36.60
26035;DHT22;13809;48.632;11.576;2023-01-20T02:34:13;4.70;36.60
26035;DHT22;13809;48.632;11.576;2023-01-20T02:39:21;4.60;36.50
26035;DHT22;13809;48.632;11.576;2023-01-20T02:44:34;4.60;36.50
26035;DHT22;13809;48.632;11.576;2023-01-20T02:49:42;4.60;36.50
26035;DHT22;13809;48.632;11.576;2023-01-20T02:54:51;4.50;36.40
26035;DHT22;13809;48.632;11.576;2023-01-20T03:00:00;4.50;36.40
26035;DHT22;13809;48.632;11.576;2023-01-20T03:05:11;4.50;36.40
26035;DHT22;13809;48.632;11.576;2023-01-20T03:10:19;4.50;36.30
26035;DHT22;13809;48.632;11.576;2023-01-20T03:15:27;4.50;36.40
26035;DHT22;13809;48.632;11.576;2023-01-20T03:20:36;4.50;36.40
26035;DHT22;13809;48.632;11.576;2023-01-20T03:25:40;4.50;36.40
26035;DHT22;13809;48.632;11.576;2023-01-20T03:30:43;4.60;36.50
26035;DHT22;13809;48.632;11.576;2023-01-20T03:35:48;4.50;36.40
26035;DHT22;13809;48.632;11.576;2023-01-20T03:40:58;4.50;36.40
26035;DHT22;13809;48.632;11.576;2023-01-20T03:46:08;4.50;36.40
26035;DHT22;13809;48.632;11.576;2023-01-20T03:51:19;4.50;36.40
26035;DHT22;13809;48.632;11.576;2023-01-20T03:56:28;4.50;36.40
26035;DHT22;13809;48.632;11.576;2023-01-20T04:01:35;4.50;36.40
26035;DHT22;13809;48.632;11.576;2023-01-20T04:06:41;4.50;36.40
26035;DHT22;13809;48.632;11.576;2023-01-20T04:11:45;4.50;36.40
26035;DHT22;13809;48.632;11.576;2023-01-20T04:16:50;4.50;36.40
26035;DHT22;13809;48.632;11.576;2023-01-20T04:21:59;4.50;36.40
26035;DHT22;13809;48.632;11.576;2023-01-20T04:27:04;4.50;36.40
26035;DHT22;13809;48.632;11.576;2023-01-20T04:32:09;4.40;36.30
26035;DHT22;13809;48.632;11.576;2023-01-20T04:37:14;4.30;36.20
26035;DHT22;13809;48.632;11.576;2023-01-20T04:42:17;4.20;36.30
26035;DHT22;13809;48.632;11.576;2023-01-20T04:47:20;4.10;36.60
26035;DHT22;13809;48.632;11.576;2023-01-20T04:52:25;4.10;36.60
26035;DHT22;13809;48.632;11.576;2023-01-20T04:57:28;4.10;37.40
26035;DHT22;13809;48.632;11.576;2023-01-20T05:02:31;4.10;36.50
26035;DHT22;13809;48.632;11.576;2023-01-20T05:07:36;4.20;36.60
26035;DHT22;13809;48.632;11.576;2023-01-20T05:12:39;4.10;36.30
26035;DHT22;13809;48.632;11.576;2023-01-20T05:17:43;4.00;36.40
26035;DHT22;13809;48.632;11.576;2023-01-20T05:22:47;4.00;36.70
26035;DHT22;13809;48.632;11.576;2023-01-20T05:27:53;4.10;36.90
26035;DHT22;13809;48.632;11.576;2023-01-20T05:32:56;3.90;36.80
26035;DHT22;13809;48.632;11.576;2023-01-20T05:38:01;4.10;36.80
26035;DHT22;13809;48.632;11.576;2023-01-20T05:43:04;3.90;36.70
26035;DHT22;13809;48.632;11.576;2023-01-20T05:48:07;3.90;36.60
26035;DHT22;13809;48.632;11.576;2023-01-20T05:53:12;3.90;36.60
26035;DHT22;13809;48.632;11.576;2023-01-20T05:58:15;3.80;36.60
26035;DHT22;13809;48.632;11.576;2023-01-20T06:03:18;3.80;36.70
26035;DHT22;13809;48.632;11.576;2023-01-20T06:08:23;3.90;36.80
26035;DHT22;13809;48.632;11.576;2023-01-20T06:13:26;3.80;36.70
26035;DHT22;13809;48.632;11.576;2023-01-20T06:18:29;3.70;36.80
26035;DHT22;13809;48.632;11.576;2023-01-20T06:23:34;3.70;37.00
26035;DHT22;13809;48.632;11.576;2023-01-20T06:28:37;3.70;37.30
26035;DHT22;13809;48.632;11.576;2023-01-20T06:33:40;3.90;37.30
26035;DHT22;13809;48.632;11.576;2023-01-20T06:38:45;3.70;37.30
26035;DHT22;13809;48.632;11.576;2023-01-20T06:43:51;3.80;37.30
26035;DHT22;13809;48.632;11.576;2023-01-20T06:48:54;3.80;37.00
26035;DHT22;13809;48.632;11.576;2023-01-20T06:54:02;3.80;37.10
26035;DHT22;13809;48.632;11.576;2023-01-20T06:59:06;3.70;37.30
26035;DHT22;13809;48.632;11.576;2023-01-20T07:04:12;3.80;37.30
26035;DHT22;13809;48.632;11.576;2023-01-20T07:09:17;3.80;37.50
26035;DHT22;13809;48.632;11.576;2023-01-20T07:14:20;3.80;37.50
26035;DHT22;13809;48.632;11.576;2023-01-20T07:19:23;3.90;37.50
26035;DHT22;13809;48.632;11.576;2023-01-20T07:24:28;3.90;37.40
26035;DHT22;13809;48.632;11.576;2023-01-20T07:29:31;3.90;37.30
26035;DHT22;13809;48.632;11.576;2023-01-20T07:34:34;3.90;37.30
26035;DHT22;13809;48.632;11.576;2023-01-20T07:39:39;3.80;37.10
26035;DHT22;13809;48.632;11.576;2023-01-20T07:44:42;3.80;37.40
26035;DHT22;13809;48.632;11.576;2023-01-20T07:49:46;3.80;37.40
26035;DHT22;13809;48.632;11.576;2023-01-20T07:54:50;3.80;37.50
26035;DHT22;13809;48.632;11.576;2023-01-20T07:59:53;4.00;37.80
26035;DHT22;13809;48.632;11.576;2023-01-20T08:04:57;3.90;37.70
26035;DHT22;13809;48.632;11.576;2023-01-20T08:10:01;3.90;37.60
26035;DHT22;13809;48.632;11.576;2023-01-20T08:15:06;3.90;37.70
26035;DHT22;13809;48.632;11.576;2023-01-20T08:20:10;4.00;37.80
26035;DHT22;13809;48.632;11.576;2023-01-20T08:25:15;4.00;37.70
26035;DHT22;13809;48.632;11.576;2023-01-20T08:30:18;4.00;37.80
26035;DHT22;13809;48.632;11.576;2023-01-20T08:35:22;4.10;37.80
26035;DHT22;13809;48.632;11.576;2023-01-20T08:40:26;4.10;37.70
26035;DHT22;13809;48.632;11.576;2023-01-20T08:45:30;4.10;38.00
26035;DHT22;13809;48.632;11.576;2023-01-20T08:50:33;4.10;38.00
26035;DHT22;13809;48.632;11.576;2023-01-20T08:55:37;4.20;38.20
26035;DHT22;13809;48.632;11.576;2023-01-20T09:00:41;4.20;38.30
26035;DHT22;13809;48.632;11.576;2023-01-20T09:05:44;4.20;38.20
26035;DHT22;13809;48.632;11.576;2023-01-20T09:10:49;4.20;38.20
26035;DHT22;13809;48.632;11.576;2023-01-20T09:15:52;4.20;38.50
26035;DHT22;13809;48.632;11.576;2023-01-20T09:20:56;4.20;38.40
26035;DHT22;13809;48.632;11.576;2023-01-20T09:26:02;4.30;38.70
26035;DHT22;13809;48.632;11.576;2023-01-20T09:31:07;4.20;38.80
26035;DHT22;13809;48.632;11.576;2023-01-20T09:36:11;4.20;38.90
26035;DHT22;13809;48.632;11.576;2023-01-20T09:41:18;4.20;38.90
26035;DHT22;13809;48.632;11.576;2023-01-20T09:47:03;4.20;39.30
26035;DHT22;13809;48.632;11.576;2023-01-20T09:52:26;4.30;39.60
26035;DHT22;13809;48.632;11.576;2023-01-20T09:57:59;4.60;39.50
26035;DHT22;13809;48.632;11.576;2023-01-20T10:03:08;4.60;39.50
26035;DHT22;13809;48.632;11.576;2023-01-20T10:08:18;4.50;39.70
26035;DHT22;13809;48.632;11.576;2023-01-20T10:13:26;4.50;39.00
26035;DHT22;13809;48.632;11.576;2023-01-20T10:18:38;4.40;39.10
26035;DHT22;13809;48.632;11.576;2023-01-20T10:23:47;4.40;39.10
26035;DHT22;13809;48.632;11.576;2023-01-20T10:28:59;4.40;39.20
26035;DHT22;13809;48.632;11.576;2023-01-20T10:34:06;4.40;39.60
26035;DHT22;13809;48.632;11.576;2023-01-20T10:39:21;4.40;39.40
26035;DHT22;13809;48.632;11.576;2023-01-20T10:44:32;4.30;39.70
26035;DHT22;13809;48.632;11.576;2023-01-20T10:50:02;4.40;39.70
26035;DHT22;13809;48.632;11.576;2023-01-20T10:55:18;4.40;39.80
26035;DHT22;13809;48.632;11.576;2023-01-20T11:00:28;4.50;40.00
26035;DHT22;13809;48.632;11.576;2023-01-20T11:05:34;4.50;39.60
26035;DHT22;13809;48.632;11.576;2023-01-20T11:10:38;4.50;39.50
26035;DHT22;13809;48.632;11.576;2023-01-20T11:15:46;4.50;39.40
26035;DHT22;13809;48.632;11.576;2023-01-20T11:20:52;4.50;39.70
26035;DHT22;13809;48.632;11.576;2023-01-20T11:25:57;4.50;39.60
26035;DHT22;13809;48.632;11.576;2023-01-20T11:31:02;4.50;39.60
26035;DHT22;13809;48.632;11.576;2023-01-20T11:36:15;4.60;39.70
26035;DHT22;13809;48.632;11.576;2023-01-20T11:41:21;4.60;40.00
26035;DHT22;13809;48.632;11.576;2023-01-20T11:46:28;4.70;39.70
26035;DHT22;13809;48.632;11.576;2023-01-20T11:51:31;4.70;40.00
26035;DHT22;13809;48.632;11.576;2023-01-20T11:56:39;4.70;39.70
26035;DHT22;13809;48.632;11.576;2023-01-20T12:01:53;4.80;40.10
26035;DHT22;13809;48.632;11.576;2023-01-20T12:07:01;4.80;40.30
26035;DHT22;13809;48.632;11.576;2023-01-20T12:12:08;4.80;40.00
26035;DHT22;13809;48.632;11.576;2023-01-20T12:17:38;4.80;40.00
26035;DHT22;13809;48.632;11.576;2023-01-20T12:22:55;4.90;40.50
26035;DHT22;13809;48.632;11.576;2023-01-20T12:28:04;4.90;40.30
26035;DHT22;13809;48.632;11.576;2023-01-20T12:33:23;5.00;40.00
26035;DHT22;13809;48.632;11.576;2023-01-20T12:38:28;5.00;40.50
26035;DHT22;13809;48.632;11.576;2023-01-20T12:43:43;5.00;39.90
26035;DHT22;13809;48.632;11.576;2023-01-20T12:49:09;5.00;39.90
26035;DHT22;13809;48.632;11.576;2023-01-20T12:54:36;5.00;40.40
26035;DHT22;13809;48.632;11.576;2023-01-20T12:59:57;5.00;40.70
26035;DHT22;13809;48.632;11.576;2023-01-20T13:05:19;5.00;40.30
26035;DHT22;13809;48.632;11.576;2023-01-20T13:10:42;5.10;40.70
26035;DHT22;13809;48.632;11.576;2023-01-20T13:15:55;5.10;40.80
26035;DHT22;13809;48.632;11.576;2023-01-20T13:21:00;5.10;40.10
26035;DHT22;13809;48.632;11.576;2023-01-20T13:26:04;5.20;40.30
26035;DHT22;13809;48.632;11.576;2023-01-20T13:31:30;5.20;40.20
26035;DHT22;13809;48.632;11.576;2023-01-20T13:36:36;5.20;41.20
26035;DHT22;13809;48.632;11.576;2023-01-20T13:41:47;5.20;40.10
26035;DHT22;13809;48.632;11.576;2023-01-20T13:46:51;5.30;40.70
26035;DHT22;13809;48.632;11.576;2023-01-20T13:51:56;5.30;40.10
26035;DHT22;13809;48.632;11.576;2023-01-20T13:57:33;5.30;40.40
26035;DHT22;13809;48.632;11.576;2023-01-20T14:02:37;5.30;41.70
26035;DHT22;13809;48.632;11.576;2023-01-20T14:07:43;5.40;40.30
26035;DHT22;13809;48.632;11.576;2023-01-20T14:12:46;5.40;40.80
26035;DHT22;13809;48.632;11.576;2023-01-20T14:17:52;5.50;40.40
26035;DHT22;13809;48.632;11.576;2023-01-20T14:23:26;5.50;40.50
26035;DHT22;13809;48.632;11.576;2023-01-20T14:28:29;5.50;40.80
26035;DHT22;13809;48.632;11.576;2023-01-20T14:33:32;5.50;40.10
26035;DHT22;13809;48.632;11.576;2023-01-20T14:38:37;5.50;40.00
26035;DHT22;13809;48.632;11.576;2023-01-20T14:43:57;5.40;40.10
26035;DHT22;13809;48.632;11.576;2023-01-20T14:49:02;5.40;40.20
26035;DHT22;13809;48.632;11.576;2023-01-20T14:59:57;5.30;41.40
26035;DHT22;13809;48.632;11.576;2023-01-20T15:05:22;5.20;40.50
26035;DHT22;13809;48.632;11.576;2023-01-20T15:10:28;5.20;41.10
26035;DHT22;13809;48.632;11.576;2023-01-20T15:15:33;5.30;40.50
26035;DHT22;13809;48.632;11.576;2023-01-20T15:20:38;5.30;40.80
26035;DHT22;13809;48.632;11.576;2023-01-20T15:25:42;5.30;40.80
26035;DHT22;13809;48.632;11.576;2023-01-20T15:30:47;5.30;40.60
26035;DHT22;13809;48.632;11.576;2023-01-20T15:35:53;5.30;40.80
26035;DHT22;13809;48.632;11.576;2023-01-20T15:40:56;5.30;40.70
26035;DHT22;13809;48.632;11.576;2023-01-20T15:46:01;5.30;40.50
26035;DHT22;13809;48.632;11.576;2023-01-20T15:51:05;5.30;40.80
26035;DHT22;13809;48.632;11.576;2023-01-20T15:56:14;5.20;40.60
26035;DHT22;13809;48.632;11.576;2023-01-20T16:01:21;5.10;41.30
26035;DHT22;13809;48.632;11.576;2023-01-20T16:06:28;5.10;41.00
26035;DHT22;13809;48.632;11.576;2023-01-20T16:11:32;5.10;40.80
26035;DHT22;13809;48.632;11.576;2023-01-20T16:16:36;5.10;40.60
26035;DHT22;13809;48.632;11.576;2023-01-20T16:21:40;5.10;40.80
26035;DHT22;13809;48.632;11.576;2023-01-20T16:26:46;5.10;40.60
26035;DHT22;13809;48.632;11.576;2023-01-20T16:31:50;5.10;40.70
26035;DHT22;13809;48.632;11.576;2023-01-20T16:36:54;5.10;40.90
26035;DHT22;13809;48.632;11.576;2023-01-20T16:41:57;5.10;40.50
26035;DHT22;13809;48.632;11.576;2023-01-20T16:47:02;5.00;40.40
26035;DHT22;13809;48.632;11.576;2023-01-20T16:52:05;4.90;40.50
26035;DHT22;13809;48.632;11.576;2023-01-20T16:57:09;4.90;40.50
26035;DHT22;13809;48.632;11.576;2023-01-20T17:02:14;4.90;40.90
26035;DHT22;13809;48.632;11.576;2023-01-20T17:07:18;4.90;41.00
26035;DHT22;13809;48.632;11.576;2023-01-20T17:12:21;4.80;40.70
26035;DHT22;13809;48.632;11.576;2023-01-20T17:17:26;4.70;40.70
26035;DHT22;13809;48.632;11.576;2023-01-20T17:22:29;4.60;41.10
26035;DHT22;13809;48.632;11.576;2023-01-20T17:27:32;4.50;41.10
26035;DHT22;13809;48.632;11.576;2023-01-20T17:32:36;4.40;41.30
26035;DHT22;13809;48.632;11.576;2023-01-20T17:37:39;4.30;41.40
26035;DHT22;13809;48.632;11.576;2023-01-20T17:42:43;4.50;41.50
26035;DHT22;13809;48.632;11.576;2023-01-20T17:47:50;4.30;41.30
26035;DHT22;13809;48.632;11.576;2023-01-20T17:52:53;4.30;41.90
26035;DHT22;13809;48.632;11.576;2023-01-20T17:57:57;4.20;41.40
26035;DHT22;13809;48.632;11.576;2023-01-20T18:03:01;4.20;41.70
26035;DHT22;13809;48.632;11.576;2023-01-20T18:08:04;4.10;41.80
26035;DHT22;13809;48.632;11.576;2023-01-20T18:13:07;4.20;41.50
26035;DHT22;13809;48.632;11.576;2023-01-20T18:18:12;4.20;41.50
26035;DHT22;13809;48.632;11.576;2023-01-20T18:23:15;4.30;41.50
26035;DHT22;13809;48.632;11.576;2023-01-20T18:28:18;4.30;41.20
26035;DHT22;13809;48.632;11.576;2023-01-20T18:33:23;4.50;41.30
26035;DHT22;13809;48.632;11.576;2023-01-20T18:38:26;4.40;41.20
26035;DHT22;13809;48.632;11.576;2023-01-20T18:43:29;4.50;41.10
26035;DHT22;13809;48.632;11.576;2023-01-20T18:48:36;4.60;41.00
26035;DHT22;13809;48.632;11.576;2023-01-20T18:53:40;4.50;41.20
26035;DHT22;13809;48.632;11.576;2023-01-20T18:58:44;4.50;40.90
26035;DHT22;13809;48.632;11.576;2023-01-20T19:03:49;4.60;41.00
26035;DHT22;13809;48.632;11.576;2023-01-20T19:08:54;4.50;41.00
26035;DHT22;13809;48.632;11.576;2023-01-20T19:13:58;4.50;40.90
26035;DHT22;13809;48.632;11.576;2023-01-20T19:19:04;4.50;40.80
26035;DHT22;13809;48.632;11.576;2023-01-20T19:24:12;4.50;41.00
26035;DHT22;13809;48.632;11.576;2023-01-20T19:29:16;4.40;40.80
26035;DHT22;13809;48.632;11.576;2023-01-20T19:34:22;4.40;40.80
26035;DHT22;13809;48.632;11.576;2023-01-20T19:39:25;4.40;41.00
26035;DHT22;13809;48.632;11.576;2023-01-20T19:44:28;4.40;40.90
26035;DHT22;13809;48.632;11.576;2023-01-20T19:49:33;4.40;40.80
26035;DHT22;13809;48.632;11.576;2023-01-20T19:54:36;4.40;41.00
26035;DHT22;13809;48.632;11.576;2023-01-20T19:59:40;4.50;41.00
26035;DHT22;13809;48.632;11.576;2023-01-20T20:04:45;4.50;40.80
26035;DHT22;13809;48.632;11.576;2023-01-20T20:09:48;4.60;40.90
26035;DHT22;13809;48.632;11.576;2023-01-20T20:14:52;4.60;40.70
26035;DHT22;13809;48.632;11.576;2023-01-20T20:19:57;4.60;40.60
26035;DHT22;13809;48.632;11.576;2023-01-20T20:25:00;4.70;41.40
26035;DHT22;13809;48.632;11.576;2023-01-20T20:30:04;4.70;40.50
26035;DHT22;13809;48.632;11.576;2023-01-20T20:35:09;4.60;40.40
26035;DHT22;13809;48.632;11.576;2023-01-20T20:40:13;4.60;40.40
26035;DHT22;13809;48.632;11.576;2023-01-20T20:45:16;4.50;40.40
26035;DHT22;13809;48.632;11.576;2023-01-20T20:50:22;4.50;40.50
26035;DHT22;13809;48.632;11.576;2023-01-20T20:55:26;4.60;40.60
26035;DHT22;13809;48.632;11.576;2023-01-20T21:00:30;4.60;40.50
26035;DHT22;13809;48.632;11.576;2023-01-20T21:05:34;4.60;40.30
26035;DHT22;13809;48.632;11.576;2023-01-20T21:10:39;4.60;40.30
26035;DHT22;13809;48.632;11.576;2023-01-20T21:15:42;4.60;40.30
26035;DHT22;13809;48.632;11.576;2023-01-20T21:20:53;4.60;40.20
26035;DHT22;13809;48.632;11.576;2023-01-20T21:25:59;4.50;40.50
26035;DHT22;13809;48.632;11.576;2023-01-20T21:31:05;4.30;40.30
26035;DHT22;13809;48.632;11.576;2023-01-20T21:36:10;4.20;40.30
26035;DHT22;13809;48.632;11.576;2023-01-20T21:41:14;4.10;40.20
26035;DHT22;13809;48.632;11.576;2023-01-20T21:46:17;4.00;40.30
26035;DHT22;13809;48.632;11.576;2023-01-20T21:51:22;3.90;40.40
26035;DHT22;13809;48.632;11.576;2023-01-20T21:56:43;3.90;40.60
26035;DHT22;13809;48.632;11.576;2023-01-20T22:01:46;3.80;40.50
26035;DHT22;13809;48.632;11.576;2023-01-20T22:06:50;3.70;40.70
26035;DHT22;13809;48.632;11.576;2023-01-20T22:11:54;3.60;41.00
26035;DHT22;13809;48.632;11.576;2023-01-20T22:16:57;3.60;41.00
26035;DHT22;13809;48.632;11.576;2023-01-20T22:22:02;3.60;41.20
26035;DHT22;13809;48.632;11.576;2023-01-20T22:27:05;3.50;41.50
26035;DHT22;13809;48.632;11.576;2023-01-20T22:32:08;3.50;41.20
26035;DHT22;13809;48.632;11.576;2023-01-20T22:37:13;3.50;41.40
26035;DHT22;13809;48.632;11.576;2023-01-20T22:42:16;3.70;41.70
26035;DHT22;13809;48.632;11.576;2023-01-20T22:47:19;3.70;41.40
26035;DHT22;13809;48.632;11.576;2023-01-20T22:52:24;3.80;41.30
26035;DHT22;13809;48.632;11.576;2023-01-20T22:57:28;3.70;41.20
26035;DHT22;13809;48.632;11.576;2023-01-20T23:02:31;3.70;41.10
26035;DHT22;13809;48.632;11.576;2023-01-20T23:07:36;3.70;41.00
26035;DHT22;13809;48.632;11.576;2023-01-20T23:12:39;3.80;41.10
26035;DHT22;13809;48.632;11.576;2023-01-20T23:17:42;3.80;40.90
26035;DHT22;13809;48.632;11.576;2023-01-20T23:22:47;3.80;40.80
26035;DHT22;13809;48.632;11.576;2023-01-20T23:27:50;3.80;40.90
26035;DHT22;13809;48.632;11.576;2023-01-20T23:32:53;3.80;40.80
26035;DHT22;13809;48.632;11.576;2023-01-20T23:37:57;3.90;40.80
26035;DHT22;13809;48.632;11.576;2023-01-20T23:43:00;3.80;40.80
26035;DHT22;13809;48.632;11.576;2023-01-20T23:48:04;3.80;40.70
26035;DHT22;13809;48.632;11.576;2023-01-20T23:53:09;3.80;40.70
26035;DHT22;13809;48.632;11.576;2023-01-20T23:58:12;3.80;40.70
